Decoded Metar for LFLU (VALENCE in FRANCE) (IATA:VAF) | Meteo·Mobile Aviation Weather
aviador You're here:

LFLU Decoded Metar

VALENCE in FRANCE
Report Time2019-04-20 10:30:00
UTC Time2019-04-20 10:36:08
Flight Rules vfr VFR
WindVRB at 02 kt
Visibility9999 m
Phenomena:N/A
Clouds:N/A
Expected CloudBase > 6,800 ft AGL from Temp-Dew spread
CeilingNone
Temp21°C
Dew Point04°C (33% RH)
AAT19.0°C
QNH1023 hPa
Raw Report
METAR LFLU 201030Z AUTO VRB02KT CAVOK 21/04 Q1023=

Extra information for LFLU:More info

Metar Taf Metar & Taf Last 4 Metars F.Rules Stats Wind Profile Meteogram Temp Stats Airport Information Weather charts Add Link Nearby VenuesMetar ALERT Operation Metar Decoded Social comments